createdAt,value
2023-02-05T00:00:20.048Z,103914.06
2023-02-05T00:02:48.613Z,103900.50
2023-02-05T00:05:17.049Z,103910.69
2023-02-05T00:07:45.471Z,103873.41
2023-02-05T00:10:14.201Z,103899.91
2023-02-05T00:12:42.685Z,103893.56
2023-02-05T00:15:12.859Z,103877.34
2023-02-05T00:17:41.264Z,103879.75
2023-02-05T00:20:11.442Z,103872.50
2023-02-05T00:22:39.813Z,103872.31
2023-02-05T00:25:09.025Z,103859.66
2023-02-05T00:27:37.439Z,103860.66
2023-02-05T00:30:07.235Z,103857.84
2023-02-05T00:32:37.618Z,103848.09
2023-02-05T00:35:07.442Z,103826.75
2023-02-05T00:37:35.882Z,103815.09
2023-02-05T00:40:04.550Z,103841.53
2023-02-05T00:42:33.789Z,103837.22
2023-02-05T00:45:02.445Z,103844.97
2023-02-05T00:47:30.969Z,103853.31
2023-02-05T00:50:00.772Z,103840.84
2023-02-05T00:52:29.203Z,103822.44
2023-02-05T00:54:57.784Z,103860.25
2023-02-05T00:57:26.485Z,103853.31
2023-02-05T00:59:55.076Z,103842.63
2023-02-05T01:02:25.256Z,103830.28
2023-02-05T01:04:53.986Z,103800.22
2023-02-05T01:07:24.131Z,103810.97
2023-02-05T01:09:52.724Z,103835.72
2023-02-05T01:12:21.571Z,103819.72
2023-02-05T01:14:50.175Z,103871.31
2023-02-05T01:17:19.047Z,103842.63
2023-02-05T01:19:47.854Z,103885.94
2023-02-05T01:22:16.234Z,103870.34
2023-02-05T01:24:46.314Z,103856.91
2023-02-05T01:27:14.868Z,103884.72
2023-02-05T01:29:43.218Z,103878.84
2023-02-05T01:32:11.643Z,103878.19
2023-02-05T01:34:40.178Z,103882.81
2023-02-05T01:37:08.621Z,103868.84
2023-02-05T01:39:37.484Z,103877.59
2023-02-05T01:42:19.413Z,103871.25
2023-02-05T01:45:36.196Z,103875.06
2023-02-05T01:48:06.982Z,103872.94
2023-02-05T01:50:40.917Z,103878.59
2023-02-05T01:53:14.860Z,103884.78
2023-02-05T01:55:52.819Z,103834.84
2023-02-05T01:58:23.047Z,103869.03
2023-02-05T02:00:51.833Z,103843.44
2023-02-05T02:03:20.419Z,103878.50
2023-02-05T02:05:48.970Z,103859.66
2023-02-05T02:08:17.365Z,103867.38
2023-02-05T02:10:48.136Z,103844.13
2023-02-05T02:13:17.055Z,103847.78
2023-02-05T02:15:47.913Z,103849.81
2023-02-05T02:18:28.638Z,103837.41
2023-02-05T02:21:50.661Z,103832.84
2023-02-05T02:25:12.263Z,103824.19
2023-02-05T02:27:49.108Z,103830.56
2023-02-05T02:30:25.631Z,103838.06
2023-02-05T02:33:05.708Z,103818.47
2023-02-05T02:35:45.981Z,103831.34
2023-02-05T02:38:23.211Z,103816.66
2023-02-05T02:40:56.057Z,103783.66
2023-02-05T02:43:35.684Z,103815.53
2023-02-05T02:46:10.445Z,103788.06
2023-02-05T02:48:42.836Z,103790.69
2023-02-05T02:51:12.912Z,103775.66
2023-02-05T02:53:47.562Z,103763.31
2023-02-05T02:56:18.007Z,103764.63
2023-02-05T02:58:52.051Z,103754.00
2023-02-05T03:01:25.110Z,103785.66
2023-02-05T03:03:59.531Z,103773.44
2023-02-05T03:06:30.832Z,103782.25
2023-02-05T03:09:05.210Z,103770.72
2023-02-05T03:11:35.420Z,103795.56
2023-02-05T03:14:05.466Z,103781.84
2023-02-05T03:16:38.623Z,103794.25
2023-02-05T03:19:07.358Z,103771.03
2023-02-05T03:21:42.296Z,103771.19
2023-02-05T03:24:11.354Z,103793.94
2023-02-05T03:26:40.169Z,103757.84
2023-02-05T03:29:28.801Z,103793.97
2023-02-05T03:32:10.648Z,103799.34
2023-02-05T03:34:52.723Z,103812.44
2023-02-05T03:37:38.985Z,103806.88
2023-02-05T03:40:17.733Z,103804.22
2023-02-05T03:42:57.147Z,103820.09
2023-02-05T03:45:42.833Z,103814.06
2023-02-05T03:48:35.074Z,103814.06
2023-02-05T03:51:20.115Z,103771.81
2023-02-05T03:54:01.866Z,103815.72
2023-02-05T03:56:40.827Z,103793.56
2023-02-05T03:59:10.584Z,103793.63
2023-02-05T04:01:40.846Z,103808.38
2023-02-05T04:04:10.303Z,103795.91
2023-02-05T04:06:40.700Z,103809.78
2023-02-05T04:09:11.721Z,103814.06
2023-02-05T04:11:41.288Z,103824.38
2023-02-05T04:14:10.106Z,103821.31
2023-02-05T04:16:41.288Z,103835.59
2023-02-05T04:19:09.795Z,103813.53
2023-02-05T04:21:38.351Z,103828.69
2023-02-05T04:24:08.364Z,103803.69
2023-02-05T04:26:39.746Z,103806.84
2023-02-05T04:29:08.941Z,103820.00
2023-02-05T04:31:44.297Z,103807.75
2023-02-05T04:34:13.694Z,103824.63
2023-02-05T04:36:42.746Z,103835.78
2023-02-05T04:39:11.417Z,103786.91
2023-02-05T04:41:40.015Z,103833.81
2023-02-05T04:44:08.474Z,103808.91
2023-02-05T04:46:37.071Z,103831.22
2023-02-05T04:49:07.075Z,103831.91
2023-02-05T04:51:35.627Z,103832.03
2023-02-05T04:54:04.271Z,103835.59
2023-02-05T04:56:32.739Z,103835.25
2023-02-05T04:59:01.157Z,103838.06
2023-02-05T05:01:29.627Z,103839.38
2023-02-05T05:03:58.221Z,103819.78
2023-02-05T05:06:28.935Z,103844.84
2023-02-05T05:08:57.681Z,103854.88
2023-02-05T05:11:26.015Z,103853.66
2023-02-05T05:13:54.610Z,103821.50
2023-02-05T05:16:22.960Z,103871.38
2023-02-05T05:18:53.512Z,103855.47
2023-02-05T05:21:23.530Z,103849.47
2023-02-05T05:23:59.636Z,103747.81
2023-02-05T05:26:29.520Z,103692.84
2023-02-05T05:29:00.299Z,103855.69
2023-02-05T05:31:31.380Z,103877.56
2023-02-05T05:34:00.174Z,103845.41
2023-02-05T05:36:28.692Z,103892.19
2023-02-05T05:39:21.436Z,103845.75
2023-02-05T05:42:10.436Z,103881.69
2023-02-05T05:44:39.170Z,103884.97
2023-02-05T05:47:07.636Z,103881.75
2023-02-05T05:49:36.956Z,103798.06
2023-02-05T05:52:06.155Z,103885.56
2023-02-05T05:54:36.395Z,103833.97
2023-02-05T05:57:05.543Z,103910.34
2023-02-05T05:59:34.165Z,103902.84
2023-02-05T06:02:06.582Z,103901.94
2023-02-05T06:04:36.456Z,103903.56
2023-02-05T06:07:05.393Z,103901.81
2023-02-05T06:09:37.012Z,103909.88
2023-02-05T06:12:08.678Z,103915.03
2023-02-05T06:14:38.344Z,103932.44
2023-02-05T06:17:07.461Z,103927.47
2023-02-05T06:19:39.529Z,103931.53
2023-02-05T06:22:09.463Z,103918.03
2023-02-05T06:24:41.478Z,103936.03
2023-02-05T06:27:12.556Z,103936.25
2023-02-05T06:29:48.701Z,103944.59
2023-02-05T06:32:17.187Z,103936.56
2023-02-05T06:34:45.619Z,103940.56
2023-02-05T06:37:18.215Z,103940.91
2023-02-05T06:39:48.251Z,103959.47
2023-02-05T06:42:18.911Z,103962.63
2023-02-05T06:44:48.630Z,103923.50
2023-02-05T06:47:17.611Z,103944.25
2023-02-05T06:49:48.760Z,103958.50
2023-02-05T06:52:17.705Z,103947.88
2023-02-05T06:54:48.012Z,103928.63
2023-02-05T06:57:16.372Z,103988.22
2023-02-05T06:59:44.886Z,104006.88
2023-02-05T07:02:15.275Z,103994.06
2023-02-05T07:04:43.629Z,104015.38
2023-02-05T07:07:12.042Z,103980.84
2023-02-05T07:09:40.452Z,104024.31
2023-02-05T07:12:10.509Z,104013.53
2023-02-05T07:14:39.214Z,104032.03
2023-02-05T07:17:08.436Z,104029.16
2023-02-05T07:19:37.600Z,103973.72
2023-02-05T07:22:06.376Z,104040.97
2023-02-05T07:28:54.998Z,104042.38
2023-02-05T07:31:23.536Z,104042.78
2023-02-05T07:49:26.236Z,104054.97
2023-02-05T07:51:54.633Z,104059.13
2023-02-05T07:54:23.475Z,104059.66
2023-02-05T07:56:52.000Z,104091.06
2023-02-05T07:59:20.517Z,104066.28
2023-02-05T08:01:50.687Z,104073.59
2023-02-05T08:12:59.862Z,104095.94
2023-02-05T08:15:28.371Z,104092.41
2023-02-05T08:17:58.107Z,104106.19
2023-02-05T08:25:20.337Z,104105.44
2023-02-05T09:03:29.013Z,104140.00
2023-02-05T09:05:57.692Z,104143.34
2023-02-05T09:08:27.488Z,104132.72
2023-02-05T09:10:58.008Z,104138.72
2023-02-05T09:13:27.192Z,104112.25
2023-02-05T09:15:55.546Z,104139.84
2023-02-05T09:18:24.042Z,104136.38
2023-02-05T09:20:55.234Z,104125.97
2023-02-05T09:23:24.136Z,104149.28
2023-02-05T09:25:52.498Z,104145.22
2023-02-05T09:28:20.902Z,104146.78
2023-02-05T09:30:49.368Z,104148.47
2023-02-05T09:33:17.770Z,104140.13
2023-02-05T09:35:46.207Z,104151.34
2023-02-05T09:38:18.274Z,104143.34
2023-02-05T09:40:59.276Z,104103.34
2023-02-05T09:43:50.592Z,104136.72
2023-02-05T09:46:28.809Z,104121.66
2023-02-05T09:49:04.376Z,104118.50
2023-02-05T09:51:38.066Z,104097.38
2023-02-05T09:54:18.979Z,104090.81
2023-02-05T09:56:49.528Z,104124.22
2023-02-05T09:59:22.485Z,104104.25
2023-02-05T10:01:54.471Z,104108.56
2023-02-05T10:04:23.489Z,104088.59
2023-02-05T10:07:14.970Z,104113.44
2023-02-05T10:10:22.716Z,104117.56
2023-02-05T10:13:26.928Z,104121.50
2023-02-05T10:16:38.521Z,104141.97
2023-02-05T10:19:35.411Z,104143.28
2023-02-05T10:22:17.022Z,104138.44
2023-02-05T10:25:28.698Z,104132.19
2023-02-05T10:28:07.882Z,104140.94
2023-02-05T10:30:45.453Z,104133.31
2023-02-05T10:33:19.960Z,104136.72
2023-02-05T10:36:00.232Z,104140.94
2023-02-05T10:38:35.870Z,104126.72
2023-02-05T10:41:15.442Z,104123.09
2023-02-05T10:43:50.277Z,104129.91
2023-02-05T10:46:19.591Z,104112.75
2023-02-05T10:48:52.059Z,104121.97
2023-02-05T10:51:30.112Z,104115.34
2023-02-05T10:53:59.388Z,104112.63
2023-02-05T10:56:29.441Z,104121.53
2023-02-05T10:59:01.707Z,104119.47
2023-02-05T11:01:36.125Z,104116.84
2023-02-05T11:04:09.260Z,104132.25
2023-02-05T11:06:42.402Z,104147.19
2023-02-05T11:09:35.333Z,104147.41
2023-02-05T11:12:16.010Z,104140.38
2023-02-05T11:14:49.282Z,104118.78
2023-02-05T11:17:24.541Z,104145.56
2023-02-05T11:19:55.739Z,104114.00
2023-02-05T11:22:29.514Z,104143.41
2023-02-05T11:25:16.322Z,104139.00
2023-02-05T11:27:55.765Z,104138.66
2023-02-05T11:31:01.267Z,104146.81
2023-02-05T11:33:31.517Z,104129.78
2023-02-05T11:36:04.124Z,104147.06
2023-02-05T11:38:45.261Z,104127.63
2023-02-05T11:41:27.299Z,104131.16
2023-02-05T11:44:00.560Z,104110.56
2023-02-05T11:46:35.826Z,104126.78
2023-02-05T11:49:06.172Z,104125.03
2023-02-05T11:51:45.883Z,104108.91
2023-02-05T11:54:22.557Z,104128.19
2023-02-05T11:57:24.423Z,104112.06
2023-02-05T12:00:00.239Z,104077.53
2023-02-05T12:02:37.728Z,104101.13
2023-02-05T12:05:18.500Z,104096.53
2023-02-05T12:07:53.080Z,104116.09
2023-02-05T12:10:34.062Z,104116.97
2023-02-05T12:13:15.837Z,104118.75
2023-02-05T12:16:01.083Z,104114.25
2023-02-05T12:18:48.951Z,104112.94
2023-02-05T12:21:28.694Z,104110.72
2023-02-05T12:24:45.154Z,104083.38
2023-02-05T12:27:28.662Z,104124.31
2023-02-05T12:30:22.227Z,104112.34
2023-02-05T12:33:12.879Z,104123.38
2023-02-05T12:36:01.225Z,104117.44
2023-02-05T12:38:47.991Z,104134.91
2023-02-05T12:41:31.721Z,104119.66
2023-02-05T12:44:12.957Z,104126.28
2023-02-05T12:46:56.812Z,104115.06
2023-02-05T12:49:48.274Z,104127.72
2023-02-05T12:52:34.452Z,104118.56
2023-02-05T12:55:22.737Z,104121.47
2023-02-05T12:57:57.610Z,104114.53
2023-02-05T13:00:30.704Z,104113.94
2023-02-05T13:03:08.519Z,104119.41
2023-02-05T13:05:43.624Z,104102.38
2023-02-05T13:08:18.642Z,104112.88
2023-02-05T13:10:54.792Z,104105.09
2023-02-05T13:13:29.323Z,104101.78
2023-02-05T13:16:05.947Z,104101.53
2023-02-05T13:18:39.621Z,104113.03
2023-02-05T13:21:34.458Z,104128.69
2023-02-05T13:24:37.429Z,104136.91
2023-02-05T13:27:32.938Z,104117.50
2023-02-05T13:30:04.795Z,104116.28
2023-02-05T13:32:35.422Z,104099.44
2023-02-05T13:35:03.906Z,104132.22
2023-02-05T13:37:56.636Z,104125.47
2023-02-05T13:41:17.378Z,104123.56
2023-02-05T13:44:21.036Z,104141.97
2023-02-05T13:47:28.122Z,104129.78
2023-02-05T13:50:40.768Z,104135.72
2023-02-05T13:53:30.238Z,104162.44
2023-02-05T13:56:34.158Z,104160.38
2023-02-05T13:59:05.644Z,104146.31
2023-02-05T14:01:46.168Z,104155.25
2023-02-05T14:04:24.954Z,104144.13
2023-02-05T14:07:02.996Z,104144.31
2023-02-05T14:09:39.384Z,104153.88
2023-02-05T14:12:11.145Z,104179.25
2023-02-05T14:14:41.506Z,104157.47
2023-02-05T14:17:54.864Z,104168.75
2023-02-05T14:20:40.542Z,104166.16
2023-02-05T14:24:00.255Z,104168.72
2023-02-05T14:26:51.434Z,104162.31
2023-02-05T14:29:44.050Z,104171.44
2023-02-05T14:32:13.983Z,104169.75
2023-02-05T14:34:48.790Z,104153.63
2023-02-05T14:37:38.590Z,104169.47
2023-02-05T14:40:27.522Z,104167.06
2023-02-05T14:43:09.870Z,104175.56
2023-02-05T14:45:46.357Z,104165.66
2023-02-05T14:48:25.665Z,104161.00
2023-02-05T14:51:07.701Z,104165.22
2023-02-05T14:53:39.666Z,104165.00
2023-02-05T14:56:08.843Z,104163.88
2023-02-05T14:58:44.319Z,104148.31
2023-02-05T15:01:44.113Z,104165.34
2023-02-05T15:04:40.656Z,104176.03
2023-02-05T15:07:15.668Z,104162.03
2023-02-05T15:09:51.878Z,104177.94
2023-02-05T15:12:42.808Z,104184.09
2023-02-05T15:15:33.701Z,104193.06
2023-02-05T15:18:12.758Z,104206.34
2023-02-05T15:20:43.001Z,104197.50
2023-02-05T15:23:35.046Z,104196.25
2023-02-05T15:26:08.038Z,104193.03
2023-02-05T15:28:42.262Z,104202.50
2023-02-05T15:31:34.697Z,104189.47
2023-02-05T15:34:29.604Z,104188.53
2023-02-05T15:37:06.382Z,104199.81
2023-02-05T15:39:46.705Z,104212.19
2023-02-05T15:42:20.303Z,104209.41
2023-02-05T15:44:48.873Z,104212.78
2023-02-05T15:47:24.924Z,104211.00
2023-02-05T15:49:57.451Z,104210.25
2023-02-05T15:52:28.898Z,104230.13
2023-02-05T15:55:00.564Z,104243.22
2023-02-05T15:57:32.281Z,104248.38
2023-02-05T16:00:03.726Z,104255.13
2023-02-05T16:02:34.229Z,104254.56
2023-02-05T16:05:17.391Z,104252.66
2023-02-05T16:07:51.928Z,104266.63
2023-02-05T16:10:23.406Z,104270.84
2023-02-05T16:13:02.022Z,104256.81
2023-02-05T16:15:38.333Z,104264.94
2023-02-05T16:18:18.166Z,104281.66
2023-02-05T16:20:51.736Z,104290.41
2023-02-05T16:23:29.019Z,104292.13
2023-02-05T16:26:02.530Z,104290.44
2023-02-05T16:28:39.518Z,104299.41
2023-02-05T16:31:11.510Z,104299.31
2023-02-05T16:33:46.845Z,104310.59
2023-02-05T16:36:22.120Z,104315.69
2023-02-05T16:38:56.857Z,104309.00
2023-02-05T16:41:29.805Z,104306.06
2023-02-05T16:44:03.748Z,104299.31
2023-02-05T16:46:33.335Z,104310.78
2023-02-05T16:49:05.618Z,104309.50
2023-02-05T16:51:55.934Z,104330.69
2023-02-05T16:54:34.888Z,104330.97
2023-02-05T16:57:09.637Z,104326.94
2023-02-05T16:59:51.612Z,104307.94
2023-02-05T17:02:34.384Z,104327.34
2023-02-05T17:05:07.109Z,104333.47
2023-02-05T17:07:36.005Z,104318.63
2023-02-05T17:10:20.728Z,104314.97
2023-02-05T17:12:57.999Z,104327.09
2023-02-05T17:15:37.591Z,104323.72
2023-02-05T17:18:34.223Z,104342.19
2023-02-05T17:21:25.402Z,104341.13
2023-02-05T17:23:56.966Z,104343.22
2023-02-05T17:26:27.042Z,104347.13
2023-02-05T17:28:58.102Z,104362.22
2023-02-05T17:31:29.399Z,104365.56
2023-02-05T17:33:59.984Z,104349.94
2023-02-05T17:36:29.726Z,104375.97
2023-02-05T17:38:58.500Z,104363.69
2023-02-05T17:41:49.122Z,104384.28
2023-02-05T17:44:18.403Z,104383.75
2023-02-05T17:46:47.561Z,104385.06
2023-02-05T17:49:16.048Z,104392.47
2023-02-05T17:51:45.935Z,104386.22
2023-02-05T17:54:16.595Z,104389.56
2023-02-05T17:56:46.856Z,104404.44
2023-02-05T17:59:18.691Z,104387.72
2023-02-05T18:01:51.746Z,104401.16
2023-02-05T18:04:20.881Z,104394.03
2023-02-05T18:06:50.942Z,104400.59
2023-02-05T18:09:20.096Z,104396.84
2023-02-05T18:11:48.690Z,104384.13
2023-02-05T18:14:17.377Z,104392.69
2023-02-05T18:16:46.178Z,104398.94
2023-02-05T18:19:14.900Z,104407.78
2023-02-05T18:21:44.046Z,104397.47
2023-02-05T18:24:13.842Z,104405.50
2023-02-05T18:26:42.193Z,104410.28
2023-02-05T18:29:10.778Z,104410.00
2023-02-05T18:31:39.398Z,104410.03
2023-02-05T18:34:08.584Z,104411.75
2023-02-05T18:36:37.057Z,104401.91
2023-02-05T18:39:05.758Z,104409.03
2023-02-05T18:41:35.635Z,104409.78
2023-02-05T18:44:04.142Z,104396.66
2023-02-05T18:46:32.526Z,104403.03
2023-02-05T18:49:01.316Z,104401.06
2023-02-05T18:51:30.052Z,104407.81
2023-02-05T18:53:59.629Z,104414.56
2023-02-05T18:56:29.732Z,104397.25
2023-02-05T18:59:02.924Z,104414.81
2023-02-05T19:01:32.625Z,104404.22
2023-02-05T19:04:03.674Z,104421.28
2023-02-05T19:06:32.686Z,104402.38
2023-02-05T19:09:02.204Z,104426.72
2023-02-05T19:11:31.984Z,104428.09
2023-02-05T19:14:05.673Z,104440.75
2023-02-05T19:16:36.976Z,104441.00
2023-02-05T19:19:06.271Z,104440.59
2023-02-05T19:21:36.289Z,104422.47
2023-02-05T19:24:07.577Z,104436.03
2023-02-05T19:26:38.898Z,104443.00
2023-02-05T19:29:13.970Z,104434.00
2023-02-05T19:31:43.144Z,104443.28
2023-02-05T19:34:12.259Z,104435.53
2023-02-05T19:36:40.958Z,104460.00
2023-02-05T19:39:12.282Z,104456.84
2023-02-05T19:41:41.295Z,104455.13
2023-02-05T19:44:11.186Z,104464.28
2023-02-05T19:46:44.153Z,104462.88
2023-02-05T19:49:15.771Z,104448.88
2023-02-05T19:51:47.032Z,104443.81
2023-02-05T19:54:16.102Z,104439.34
2023-02-05T19:56:45.370Z,104453.16
2023-02-05T19:59:16.881Z,104464.63
2023-02-05T20:01:46.608Z,104480.53
2023-02-05T20:04:18.021Z,104463.63
2023-02-05T20:06:47.782Z,104488.81
2023-02-05T20:09:18.336Z,104481.13
2023-02-05T20:11:49.887Z,104486.47
2023-02-05T20:14:20.384Z,104471.41
2023-02-05T20:16:49.227Z,104480.47
2023-02-05T20:19:19.005Z,104472.53
2023-02-05T20:21:48.314Z,104468.22
2023-02-05T20:24:17.360Z,104473.66
2023-02-05T20:26:48.405Z,104465.84
2023-02-05T20:29:40.336Z,104472.28
2023-02-05T20:32:11.518Z,104467.69
2023-02-05T20:34:44.722Z,104475.72
2023-02-05T20:37:13.385Z,104470.78
2023-02-05T20:39:42.856Z,104494.00
2023-02-05T20:42:13.574Z,104479.19
2023-02-05T20:44:43.726Z,104470.38
2023-02-05T20:47:15.774Z,104501.69
2023-02-05T20:49:44.398Z,104486.22
2023-02-05T20:52:13.411Z,104495.84
2023-02-05T20:54:42.156Z,104505.91
2023-02-05T20:57:10.792Z,104490.56
2023-02-05T20:59:39.220Z,104467.63
2023-02-05T21:02:08.110Z,104470.22
2023-02-05T21:04:38.557Z,104493.94
2023-02-05T21:07:07.204Z,104520.81
2023-02-05T21:09:35.760Z,104497.59
2023-02-05T21:12:04.430Z,104520.63
2023-02-05T21:14:35.305Z,104515.13
2023-02-05T21:17:03.738Z,104496.44
2023-02-05T21:19:32.294Z,104498.78
2023-02-05T21:22:02.147Z,104490.13
2023-02-05T21:24:30.650Z,104493.63
2023-02-05T21:26:59.061Z,104498.00
2023-02-05T21:29:27.566Z,104503.63
2023-02-05T21:31:56.443Z,104503.78
2023-02-05T21:34:27.261Z,104492.63
2023-02-05T21:36:56.799Z,104510.59
2023-02-05T21:39:27.634Z,104487.81
2023-02-05T21:41:56.348Z,104504.97
2023-02-05T21:44:24.722Z,104507.69
2023-02-05T21:46:54.671Z,104479.78
2023-02-05T21:49:23.337Z,104502.31
2023-02-05T21:51:53.476Z,104510.44
2023-02-05T21:54:25.406Z,104506.03
2023-02-05T21:56:55.935Z,104497.28
2023-02-05T21:59:24.693Z,104509.31
2023-02-05T22:01:53.120Z,104510.91
2023-02-05T22:04:21.581Z,104507.06
2023-02-05T22:06:51.439Z,104495.78
2023-02-05T22:09:20.574Z,104511.84
2023-02-05T22:11:51.294Z,104496.72
2023-02-05T22:14:21.116Z,104506.28
2023-02-05T22:16:49.719Z,104506.78
2023-02-05T22:19:18.104Z,104489.81
2023-02-05T22:21:46.449Z,104495.63
2023-02-05T22:24:17.516Z,104488.66
2023-02-05T22:26:46.597Z,104507.13
2023-02-05T22:29:17.363Z,104510.06
2023-02-05T22:31:51.043Z,104491.63
2023-02-05T22:34:21.268Z,104497.41
2023-02-05T22:36:49.670Z,104503.16
2023-02-05T22:39:18.039Z,104515.97
2023-02-05T22:41:46.627Z,104514.59
2023-02-05T22:44:14.993Z,104521.38
2023-02-05T22:46:46.041Z,104521.53
2023-02-05T22:49:15.740Z,104510.28
2023-02-05T22:51:45.430Z,104528.13
2023-02-05T22:54:15.933Z,104517.31
2023-02-05T22:56:44.769Z,104519.00
2023-02-05T22:59:13.464Z,104543.22
2023-02-05T23:01:41.844Z,104539.25
2023-02-05T23:04:12.209Z,104527.50
2023-02-05T23:06:42.856Z,104534.94
2023-02-05T23:09:14.548Z,104532.53
2023-02-05T23:11:43.542Z,104528.22
2023-02-05T23:14:14.390Z,104512.25
2023-02-05T23:16:45.696Z,104487.53
2023-02-05T23:19:18.445Z,104494.53
2023-02-05T23:21:47.626Z,104528.38
2023-02-05T23:24:17.801Z,104491.34
2023-02-05T23:26:50.765Z,104504.91
2023-02-05T23:29:19.677Z,104520.44
2023-02-05T23:31:48.506Z,104523.19
2023-02-05T23:34:18.252Z,104522.59
2023-02-05T23:36:46.593Z,104511.34
2023-02-05T23:39:15.013Z,104523.03
2023-02-05T23:41:43.385Z,104525.28
2023-02-05T23:44:15.531Z,104527.28
2023-02-05T23:46:45.285Z,104492.34
2023-02-05T23:49:14.624Z,104500.75
2023-02-05T23:51:44.393Z,104498.78
2023-02-05T23:54:13.378Z,104474.19
2023-02-05T23:56:42.297Z,104498.59
2023-02-05T23:59:13.224Z,104526.03
